sensor_id;sensor_type;location;lat;lon;timestamp;temperature;humidity
11965;DHT22;6042;41.326;19.826;2022-08-21T00:01:53;23.30;99.90
11965;DHT22;6042;41.326;19.826;2022-08-21T00:04:22;23.30;99.90
11965;DHT22;6042;41.326;19.826;2022-08-21T00:06:58;23.20;99.90
11965;DHT22;6042;41.326;19.826;2022-08-21T00:09:26;23.20;99.90
11965;DHT22;6042;41.326;19.826;2022-08-21T00:11:55;23.30;99.90
11965;DHT22;6042;41.326;19.826;2022-08-21T00:14:24;23.30;99.90
11965;DHT22;6042;41.326;19.826;2022-08-21T00:16:58;23.30;99.90
11965;DHT22;6042;41.326;19.826;2022-08-21T00:19:28;23.40;99.90
11965;DHT22;6042;41.326;19.826;2022-08-21T00:21:58;23.40;99.90
11965;DHT22;6042;41.326;19.826;2022-08-21T00:24:27;23.40;99.90
11965;DHT22;6042;41.326;19.826;2022-08-21T00:26:56;23.40;99.90
11965;DHT22;6042;41.326;19.826;2022-08-21T00:29:24;23.50;99.90
11965;DHT22;6042;41.326;19.826;2022-08-21T00:31:53;23.50;99.90
11965;DHT22;6042;41.326;19.826;2022-08-21T00:43:59;23.40;99.90
11965;DHT22;6042;41.326;19.826;2022-08-21T00:46:30;23.40;99.90
11965;DHT22;6042;41.326;19.826;2022-08-21T00:48:58;23.40;99.90
11965;DHT22;6042;41.326;19.826;2022-08-21T00:51:32;23.40;99.90
11965;DHT22;6042;41.326;19.826;2022-08-21T00:54:05;23.40;99.90
11965;DHT22;6042;41.326;19.826;2022-08-21T00:56:46;23.40;99.90
11965;DHT22;6042;41.326;19.826;2022-08-21T00:59:20;23.30;99.90
11965;DHT22;6042;41.326;19.826;2022-08-21T01:01:49;23.30;99.90
11965;DHT22;6042;41.326;19.826;2022-08-21T01:04:19;23.30;99.90
11965;DHT22;6042;41.326;19.826;2022-08-21T01:06:48;23.30;99.90
11965;DHT22;6042;41.326;19.826;2022-08-21T01:09:18;23.30;99.90
11965;DHT22;6042;41.326;19.826;2022-08-21T01:11:47;23.20;99.90
11965;DHT22;6042;41.326;19.826;2022-08-21T01:14:17;23.20;99.90
11965;DHT22;6042;41.326;19.826;2022-08-21T01:16:51;23.10;99.90
11965;DHT22;6042;41.326;19.826;2022-08-21T01:19:21;23.10;99.90
11965;DHT22;6042;41.326;19.826;2022-08-21T01:21:51;23.10;99.90
11965;DHT22;6042;41.326;19.826;2022-08-21T01:24:21;23.00;99.90
11965;DHT22;6042;41.326;19.826;2022-08-21T01:26:50;23.00;99.90
11965;DHT22;6042;41.326;19.826;2022-08-21T01:29:32;23.00;99.90
11965;DHT22;6042;41.326;19.826;2022-08-21T01:32:05;22.90;99.90
11965;DHT22;6042;41.326;19.826;2022-08-21T01:34:37;22.90;99.90
11965;DHT22;6042;41.326;19.826;2022-08-21T01:37:08;23.00;99.90
11965;DHT22;6042;41.326;19.826;2022-08-21T01:39:37;23.00;99.90
11965;DHT22;6042;41.326;19.826;2022-08-21T01:42:06;23.00;99.90
11965;DHT22;6042;41.326;19.826;2022-08-21T01:44:35;23.00;99.90
11965;DHT22;6042;41.326;19.826;2022-08-21T01:47:07;23.10;99.90
11965;DHT22;6042;41.326;19.826;2022-08-21T01:49:37;23.00;99.90
11965;DHT22;6042;41.326;19.826;2022-08-21T01:52:07;23.00;99.90
11965;DHT22;6042;41.326;19.826;2022-08-21T01:54:37;23.00;99.90
11965;DHT22;6042;41.326;19.826;2022-08-21T01:57:06;23.00;99.90
11965;DHT22;6042;41.326;19.826;2022-08-21T01:59:35;23.00;99.90
11965;DHT22;6042;41.326;19.826;2022-08-21T02:02:04;23.00;99.90
11965;DHT22;6042;41.326;19.826;2022-08-21T02:04:33;23.00;99.90
11965;DHT22;6042;41.326;19.826;2022-08-21T02:07:02;23.00;99.90
11965;DHT22;6042;41.326;19.826;2022-08-21T02:09:35;23.00;99.90
11965;DHT22;6042;41.326;19.826;2022-08-21T02:12:06;23.10;99.90
11965;DHT22;6042;41.326;19.826;2022-08-21T02:14:36;23.10;99.90
11965;DHT22;6042;41.326;19.826;2022-08-21T02:17:05;23.10;99.90
11965;DHT22;6042;41.326;19.826;2022-08-21T02:19:36;23.10;99.90
11965;DHT22;6042;41.326;19.826;2022-08-21T02:22:08;23.10;99.90
11965;DHT22;6042;41.326;19.826;2022-08-21T02:24:40;23.10;99.90
11965;DHT22;6042;41.326;19.826;2022-08-21T02:27:22;23.00;99.90
11965;DHT22;6042;41.326;19.826;2022-08-21T02:29:54;22.90;99.90
11965;DHT22;6042;41.326;19.826;2022-08-21T02:32:23;22.90;99.90
11965;DHT22;6042;41.326;19.826;2022-08-21T02:34:53;22.90;99.90
11965;DHT22;6042;41.326;19.826;2022-08-21T02:37:22;22.80;99.90
11965;DHT22;6042;41.326;19.826;2022-08-21T02:39:52;22.80;99.90
11965;DHT22;6042;41.326;19.826;2022-08-21T02:42:21;22.80;99.90
11965;DHT22;6042;41.326;19.826;2022-08-21T02:44:49;22.90;99.90
11965;DHT22;6042;41.326;19.826;2022-08-21T02:47:18;22.90;99.90
11965;DHT22;6042;41.326;19.826;2022-08-21T02:49:47;22.90;99.90
11965;DHT22;6042;41.326;19.826;2022-08-21T02:52:15;22.90;99.90
11965;DHT22;6042;41.326;19.826;2022-08-21T02:54:43;22.90;99.90
11965;DHT22;6042;41.326;19.826;2022-08-21T02:57:14;22.90;99.90
11965;DHT22;6042;41.326;19.826;2022-08-21T02:59:42;23.00;99.90
11965;DHT22;6042;41.326;19.826;2022-08-21T03:02:11;23.10;99.90
11965;DHT22;6042;41.326;19.826;2022-08-21T03:04:39;23.10;99.90
11965;DHT22;6042;41.326;19.826;2022-08-21T03:07:12;23.00;99.90
11965;DHT22;6042;41.326;19.826;2022-08-21T03:09:42;23.00;99.90
11965;DHT22;6042;41.326;19.826;2022-08-21T03:12:23;23.00;99.90
11965;DHT22;6042;41.326;19.826;2022-08-21T03:14:56;23.10;99.90
11965;DHT22;6042;41.326;19.826;2022-08-21T03:17:25;23.10;99.90
11965;DHT22;6042;41.326;19.826;2022-08-21T03:19:56;23.10;99.90
11965;DHT22;6042;41.326;19.826;2022-08-21T03:22:25;23.10;99.90
11965;DHT22;6042;41.326;19.826;2022-08-21T03:24:56;23.00;99.90
11965;DHT22;6042;41.326;19.826;2022-08-21T03:27:28;22.90;99.90
11965;DHT22;6042;41.326;19.826;2022-08-21T03:29:57;22.80;99.90
11965;DHT22;6042;41.326;19.826;2022-08-21T03:32:26;22.80;99.90
11965;DHT22;6042;41.326;19.826;2022-08-21T03:34:56;22.70;99.90
11965;DHT22;6042;41.326;19.826;2022-08-21T03:37:24;22.70;99.90
11965;DHT22;6042;41.326;19.826;2022-08-21T03:39:53;22.60;99.90
11965;DHT22;6042;41.326;19.826;2022-08-21T03:42:22;22.50;99.90
11965;DHT22;6042;41.326;19.826;2022-08-21T03:44:52;22.50;99.90
11965;DHT22;6042;41.326;19.826;2022-08-21T03:47:21;22.40;99.90
11965;DHT22;6042;41.326;19.826;2022-08-21T03:49:50;22.40;99.90
11965;DHT22;6042;41.326;19.826;2022-08-21T03:52:18;22.40;99.90
11965;DHT22;6042;41.326;19.826;2022-08-21T03:54:47;22.30;99.90
11965;DHT22;6042;41.326;19.826;2022-08-21T03:57:17;22.30;99.90
11965;DHT22;6042;41.326;19.826;2022-08-21T03:59:46;22.30;99.90
11965;DHT22;6042;41.326;19.826;2022-08-21T04:02:17;22.20;99.90
11965;DHT22;6042;41.326;19.826;2022-08-21T04:04:48;22.20;99.90
11965;DHT22;6042;41.326;19.826;2022-08-21T04:07:16;22.20;99.90
11965;DHT22;6042;41.326;19.826;2022-08-21T04:09:45;22.20;99.90
11965;DHT22;6042;41.326;19.826;2022-08-21T04:12:14;22.20;99.90
11965;DHT22;6042;41.326;19.826;2022-08-21T04:14:42;22.30;99.90
11965;DHT22;6042;41.326;19.826;2022-08-21T04:17:11;22.30;99.90
11965;DHT22;6042;41.326;19.826;2022-08-21T04:19:41;22.30;99.90
11965;DHT22;6042;41.326;19.826;2022-08-21T04:22:09;22.30;99.90
11965;DHT22;6042;41.326;19.826;2022-08-21T04:24:38;22.30;99.90
11965;DHT22;6042;41.326;19.826;2022-08-21T04:27:06;22.40;99.90
11965;DHT22;6042;41.326;19.826;2022-08-21T04:29:35;22.50;99.90
11965;DHT22;6042;41.326;19.826;2022-08-21T04:32:06;22.50;99.90
11965;DHT22;6042;41.326;19.826;2022-08-21T04:34:35;22.50;99.90
11965;DHT22;6042;41.326;19.826;2022-08-21T04:37:05;22.40;99.90
11965;DHT22;6042;41.326;19.826;2022-08-21T04:39:33;22.50;99.90
11965;DHT22;6042;41.326;19.826;2022-08-21T04:42:02;22.50;99.90
11965;DHT22;6042;41.326;19.826;2022-08-21T04:44:33;22.60;99.90
11965;DHT22;6042;41.326;19.826;2022-08-21T04:47:02;22.60;99.90
11965;DHT22;6042;41.326;19.826;2022-08-21T04:49:31;22.70;99.90
11965;DHT22;6042;41.326;19.826;2022-08-21T04:52:05;22.80;99.90
11965;DHT22;6042;41.326;19.826;2022-08-21T04:54:34;22.80;99.90
11965;DHT22;6042;41.326;19.826;2022-08-21T04:57:06;22.90;99.90
11965;DHT22;6042;41.326;19.826;2022-08-21T04:59:39;22.90;99.90
11965;DHT22;6042;41.326;19.826;2022-08-21T05:02:08;22.90;99.90
11965;DHT22;6042;41.326;19.826;2022-08-21T05:04:41;22.90;99.90
11965;DHT22;6042;41.326;19.826;2022-08-21T05:07:19;22.90;99.90
11965;DHT22;6042;41.326;19.826;2022-08-21T05:10:08;22.90;99.90
11965;DHT22;6042;41.326;19.826;2022-08-21T05:12:40;22.90;99.90
11965;DHT22;6042;41.326;19.826;2022-08-21T05:15:10;22.80;99.90
11965;DHT22;6042;41.326;19.826;2022-08-21T05:17:40;22.80;99.90
11965;DHT22;6042;41.326;19.826;2022-08-21T05:20:11;22.80;99.90
11965;DHT22;6042;41.326;19.826;2022-08-21T05:22:41;22.80;99.90
11965;DHT22;6042;41.326;19.826;2022-08-21T05:25:10;22.90;99.90
11965;DHT22;6042;41.326;19.826;2022-08-21T05:27:39;22.90;99.90
11965;DHT22;6042;41.326;19.826;2022-08-21T05:30:10;23.00;99.90
11965;DHT22;6042;41.326;19.826;2022-08-21T05:32:38;23.00;99.90
11965;DHT22;6042;41.326;19.826;2022-08-21T05:35:08;23.00;99.90
11965;DHT22;6042;41.326;19.826;2022-08-21T05:37:40;23.20;99.90
11965;DHT22;6042;41.326;19.826;2022-08-21T05:40:10;23.30;99.90
11965;DHT22;6042;41.326;19.826;2022-08-21T05:42:49;23.40;99.90
11965;DHT22;6042;41.326;19.826;2022-08-21T05:45:21;23.50;99.90
11965;DHT22;6042;41.326;19.826;2022-08-21T05:48:11;23.50;99.90
11965;DHT22;6042;41.326;19.826;2022-08-21T05:50:41;23.60;99.90
11965;DHT22;6042;41.326;19.826;2022-08-21T05:53:11;23.70;99.90
11965;DHT22;6042;41.326;19.826;2022-08-21T05:55:41;23.70;99.90
11965;DHT22;6042;41.326;19.826;2022-08-21T05:58:14;23.90;99.90
11965;DHT22;6042;41.326;19.826;2022-08-21T06:00:43;24.00;99.90
11965;DHT22;6042;41.326;19.826;2022-08-21T06:03:15;24.10;99.90
11965;DHT22;6042;41.326;19.826;2022-08-21T06:05:45;24.10;99.90
11965;DHT22;6042;41.326;19.826;2022-08-21T06:08:16;24.30;99.90
11965;DHT22;6042;41.326;19.826;2022-08-21T06:10:46;24.40;99.90
11965;DHT22;6042;41.326;19.826;2022-08-21T06:13:17;24.60;99.90
11965;DHT22;6042;41.326;19.826;2022-08-21T06:15:46;24.70;99.90
11965;DHT22;6042;41.326;19.826;2022-08-21T06:18:15;24.80;99.90
11965;DHT22;6042;41.326;19.826;2022-08-21T06:20:44;24.90;99.90
11965;DHT22;6042;41.326;19.826;2022-08-21T06:23:13;25.00;99.90
11965;DHT22;6042;41.326;19.826;2022-08-21T06:25:43;25.00;99.90
11965;DHT22;6042;41.326;19.826;2022-08-21T06:28:12;25.10;99.90
11965;DHT22;6042;41.326;19.826;2022-08-21T06:30:40;25.10;99.90
11965;DHT22;6042;41.326;19.826;2022-08-21T06:33:10;25.10;99.90
11965;DHT22;6042;41.326;19.826;2022-08-21T06:35:41;25.30;99.90
11965;DHT22;6042;41.326;19.826;2022-08-21T06:38:09;25.40;99.90
11965;DHT22;6042;41.326;19.826;2022-08-21T06:40:39;25.40;99.90
11965;DHT22;6042;41.326;19.826;2022-08-21T06:43:16;25.40;99.90
11965;DHT22;6042;41.326;19.826;2022-08-21T06:45:45;25.50;99.90
11965;DHT22;6042;41.326;19.826;2022-08-21T06:48:13;25.40;99.90
11965;DHT22;6042;41.326;19.826;2022-08-21T06:50:45;25.40;99.90
11965;DHT22;6042;41.326;19.826;2022-08-21T06:53:16;25.40;99.90
11965;DHT22;6042;41.326;19.826;2022-08-21T06:55:46;25.40;99.90
11965;DHT22;6042;41.326;19.826;2022-08-21T06:58:17;25.40;99.90
11965;DHT22;6042;41.326;19.826;2022-08-21T07:00:49;25.40;99.90
11965;DHT22;6042;41.326;19.826;2022-08-21T07:03:24;25.40;99.90
11965;DHT22;6042;41.326;19.826;2022-08-21T07:05:53;25.40;99.90
11965;DHT22;6042;41.326;19.826;2022-08-21T07:08:22;25.40;99.90
11965;DHT22;6042;41.326;19.826;2022-08-21T07:10:51;25.50;99.90
11965;DHT22;6042;41.326;19.826;2022-08-21T07:13:21;25.50;99.90
11965;DHT22;6042;41.326;19.826;2022-08-21T07:15:50;25.50;99.90
11965;DHT22;6042;41.326;19.826;2022-08-21T07:18:18;25.70;99.90
11965;DHT22;6042;41.326;19.826;2022-08-21T07:20:47;25.80;99.90
11965;DHT22;6042;41.326;19.826;2022-08-21T07:23:20;25.80;99.90
11965;DHT22;6042;41.326;19.826;2022-08-21T07:25:49;25.80;99.90
11965;DHT22;6042;41.326;19.826;2022-08-21T07:28:18;25.70;99.90
11965;DHT22;6042;41.326;19.826;2022-08-21T07:30:51;25.70;99.90
11965;DHT22;6042;41.326;19.826;2022-08-21T07:33:20;25.70;99.90
11965;DHT22;6042;41.326;19.826;2022-08-21T07:35:48;25.70;99.90
11965;DHT22;6042;41.326;19.826;2022-08-21T07:38:17;25.90;99.90
11965;DHT22;6042;41.326;19.826;2022-08-21T07:40:46;26.00;99.90
11965;DHT22;6042;41.326;19.826;2022-08-21T07:43:15;26.00;99.90
11965;DHT22;6042;41.326;19.826;2022-08-21T07:45:45;26.10;99.90
11965;DHT22;6042;41.326;19.826;2022-08-21T07:48:16;26.20;99.90
11965;DHT22;6042;41.326;19.826;2022-08-21T07:50:45;26.30;99.90
11965;DHT22;6042;41.326;19.826;2022-08-21T07:53:13;26.50;99.90
11965;DHT22;6042;41.326;19.826;2022-08-21T07:55:42;26.40;99.90
11965;DHT22;6042;41.326;19.826;2022-08-21T07:58:11;26.50;99.90
11965;DHT22;6042;41.326;19.826;2022-08-21T08:00:40;26.50;99.90
11965;DHT22;6042;41.326;19.826;2022-08-21T08:03:09;26.70;99.90
11965;DHT22;6042;41.326;19.826;2022-08-21T08:05:38;26.70;99.90
11965;DHT22;6042;41.326;19.826;2022-08-21T08:08:07;26.80;99.90
11965;DHT22;6042;41.326;19.826;2022-08-21T08:10:36;26.90;99.90
11965;DHT22;6042;41.326;19.826;2022-08-21T08:13:05;27.00;99.90
11965;DHT22;6042;41.326;19.826;2022-08-21T08:15:37;27.00;99.90
11965;DHT22;6042;41.326;19.826;2022-08-21T08:18:05;27.00;99.90
11965;DHT22;6042;41.326;19.826;2022-08-21T08:20:34;27.00;99.90
11965;DHT22;6042;41.326;19.826;2022-08-21T08:23:04;27.10;99.90
11965;DHT22;6042;41.326;19.826;2022-08-21T08:25:33;27.20;99.90
11965;DHT22;6042;41.326;19.826;2022-08-21T08:28:03;27.20;99.90
11965;DHT22;6042;41.326;19.826;2022-08-21T08:30:43;27.30;99.90
11965;DHT22;6042;41.326;19.826;2022-08-21T08:33:12;27.40;99.90
11965;DHT22;6042;41.326;19.826;2022-08-21T08:35:42;27.50;99.90
11965;DHT22;6042;41.326;19.826;2022-08-21T08:38:14;27.50;99.90
11965;DHT22;6042;41.326;19.826;2022-08-21T08:40:57;27.60;99.90
11965;DHT22;6042;41.326;19.826;2022-08-21T08:43:29;27.60;99.90
11965;DHT22;6042;41.326;19.826;2022-08-21T08:46:03;27.60;99.90
11965;DHT22;6042;41.326;19.826;2022-08-21T08:48:45;27.60;99.90
11965;DHT22;6042;41.326;19.826;2022-08-21T08:51:24;27.60;99.90
11965;DHT22;6042;41.326;19.826;2022-08-21T08:53:58;27.60;99.90
11965;DHT22;6042;41.326;19.826;2022-08-21T08:56:29;27.80;99.90
11965;DHT22;6042;41.326;19.826;2022-08-21T08:59:02;27.90;99.90
11965;DHT22;6042;41.326;19.826;2022-08-21T09:01:36;28.00;99.90
11965;DHT22;6042;41.326;19.826;2022-08-21T09:04:05;28.00;99.90
11965;DHT22;6042;41.326;19.826;2022-08-21T09:06:57;28.10;99.90
11965;DHT22;6042;41.326;19.826;2022-08-21T09:09:38;28.20;99.90
11965;DHT22;6042;41.326;19.826;2022-08-21T09:12:16;28.30;99.90
11965;DHT22;6042;41.326;19.826;2022-08-21T09:14:56;28.20;99.90
11965;DHT22;6042;41.326;19.826;2022-08-21T09:17:53;28.20;99.90
11965;DHT22;6042;41.326;19.826;2022-08-21T09:20:32;28.10;99.90
11965;DHT22;6042;41.326;19.826;2022-08-21T09:23:14;28.20;99.90
11965;DHT22;6042;41.326;19.826;2022-08-21T09:25:55;28.30;99.90
11965;DHT22;6042;41.326;19.826;2022-08-21T09:28:26;28.50;99.90
11965;DHT22;6042;41.326;19.826;2022-08-21T09:30:59;28.70;99.90
11965;DHT22;6042;41.326;19.826;2022-08-21T09:33:30;28.70;99.90
11965;DHT22;6042;41.326;19.826;2022-08-21T09:35:58;28.70;99.90
11965;DHT22;6042;41.326;19.826;2022-08-21T09:38:29;28.70;99.90
11965;DHT22;6042;41.326;19.826;2022-08-21T09:41:03;28.70;99.90
11965;DHT22;6042;41.326;19.826;2022-08-21T09:43:33;28.70;99.90
11965;DHT22;6042;41.326;19.826;2022-08-21T09:46:06;28.90;99.90
11965;DHT22;6042;41.326;19.826;2022-08-21T09:48:43;28.80;99.90
11965;DHT22;6042;41.326;19.826;2022-08-21T09:51:15;28.70;99.90
11965;DHT22;6042;41.326;19.826;2022-08-21T09:53:47;28.70;99.90
11965;DHT22;6042;41.326;19.826;2022-08-21T09:56:27;28.70;99.90
11965;DHT22;6042;41.326;19.826;2022-08-21T09:59:19;28.80;99.90
11965;DHT22;6042;41.326;19.826;2022-08-21T10:01:49;29.10;99.30
11965;DHT22;6042;41.326;19.826;2022-08-21T10:04:23;29.20;99.50
11965;DHT22;6042;41.326;19.826;2022-08-21T10:06:53;29.40;99.20
11965;DHT22;6042;41.326;19.826;2022-08-21T10:09:24;29.20;99.00
11965;DHT22;6042;41.326;19.826;2022-08-21T10:12:10;29.30;98.60
11965;DHT22;6042;41.326;19.826;2022-08-21T10:14:49;29.50;97.90
11965;DHT22;6042;41.326;19.826;2022-08-21T10:17:28;29.60;97.70
11965;DHT22;6042;41.326;19.826;2022-08-21T10:20:05;29.80;97.50
11965;DHT22;6042;41.326;19.826;2022-08-21T10:22:40;29.90;96.40
11965;DHT22;6042;41.326;19.826;2022-08-21T10:25:17;29.70;96.60
11965;DHT22;6042;41.326;19.826;2022-08-21T10:27:55;29.40;96.80
11965;DHT22;6042;41.326;19.826;2022-08-21T10:30:34;29.30;96.90
11965;DHT22;6042;41.326;19.826;2022-08-21T10:33:16;29.10;98.30
11965;DHT22;6042;41.326;19.826;2022-08-21T10:35:53;28.60;99.90
11965;DHT22;6042;41.326;19.826;2022-08-21T10:38:55;28.30;99.90
11965;DHT22;6042;41.326;19.826;2022-08-21T10:41:57;28.10;99.90
11965;DHT22;6042;41.326;19.826;2022-08-21T10:44:44;27.50;99.90
11965;DHT22;6042;41.326;19.826;2022-08-21T10:47:22;26.30;99.90
11965;DHT22;6042;41.326;19.826;2022-08-21T10:49:58;25.30;99.90
11965;DHT22;6042;41.326;19.826;2022-08-21T10:52:41;24.90;99.90
11965;DHT22;6042;41.326;19.826;2022-08-21T10:55:15;24.60;99.90
11965;DHT22;6042;41.326;19.826;2022-08-21T10:57:49;24.50;99.90
11965;DHT22;6042;41.326;19.826;2022-08-21T11:00:22;24.50;99.90
11965;DHT22;6042;41.326;19.826;2022-08-21T11:02:55;24.50;99.90
11965;DHT22;6042;41.326;19.826;2022-08-21T11:05:30;24.50;99.90
11965;DHT22;6042;41.326;19.826;2022-08-21T11:08:04;24.70;99.90
11965;DHT22;6042;41.326;19.826;2022-08-21T11:10:38;24.80;99.90
11965;DHT22;6042;41.326;19.826;2022-08-21T11:13:31;24.90;99.90
11965;DHT22;6042;41.326;19.826;2022-08-21T11:16:10;25.10;99.90
11965;DHT22;6042;41.326;19.826;2022-08-21T11:18:45;25.30;99.90
11965;DHT22;6042;41.326;19.826;2022-08-21T11:21:32;25.30;99.90
11965;DHT22;6042;41.326;19.826;2022-08-21T11:24:15;25.40;99.90
11965;DHT22;6042;41.326;19.826;2022-08-21T11:26:47;25.60;99.90
11965;DHT22;6042;41.326;19.826;2022-08-21T11:29:22;26.00;99.90
11965;DHT22;6042;41.326;19.826;2022-08-21T11:32:01;26.10;99.90
11965;DHT22;6042;41.326;19.826;2022-08-21T11:34:43;26.10;99.90
11965;DHT22;6042;41.326;19.826;2022-08-21T11:37:21;26.30;99.90
11965;DHT22;6042;41.326;19.826;2022-08-21T11:39:56;26.70;99.90
11965;DHT22;6042;41.326;19.826;2022-08-21T11:42:36;27.00;99.90
11965;DHT22;6042;41.326;19.826;2022-08-21T11:45:18;27.30;99.90
11965;DHT22;6042;41.326;19.826;2022-08-21T11:48:00;27.50;99.90
11965;DHT22;6042;41.326;19.826;2022-08-21T11:50:36;27.50;99.90
11965;DHT22;6042;41.326;19.826;2022-08-21T11:53:09;27.70;99.90
11965;DHT22;6042;41.326;19.826;2022-08-21T11:55:43;27.80;99.90
11965;DHT22;6042;41.326;19.826;2022-08-21T11:58:17;28.00;99.90
11965;DHT22;6042;41.326;19.826;2022-08-21T12:00:51;28.10;99.90
11965;DHT22;6042;41.326;19.826;2022-08-21T12:03:26;28.30;99.90
11965;DHT22;6042;41.326;19.826;2022-08-21T12:05:57;28.60;99.90
11965;DHT22;6042;41.326;19.826;2022-08-21T12:08:29;28.80;99.90
11965;DHT22;6042;41.326;19.826;2022-08-21T12:11:05;28.70;99.90
11965;DHT22;6042;41.326;19.826;2022-08-21T12:13:38;28.70;99.70
11965;DHT22;6042;41.326;19.826;2022-08-21T12:16:11;28.80;99.90
11965;DHT22;6042;41.326;19.826;2022-08-21T12:18:42;29.10;99.90
11965;DHT22;6042;41.326;19.826;2022-08-21T12:21:23;29.50;98.90
11965;DHT22;6042;41.326;19.826;2022-08-21T12:24:05;29.40;98.10
11965;DHT22;6042;41.326;19.826;2022-08-21T12:26:50;29.50;99.10
11965;DHT22;6042;41.326;19.826;2022-08-21T12:29:24;29.90;98.70
11965;DHT22;6042;41.326;19.826;2022-08-21T12:31:57;29.90;97.30
11965;DHT22;6042;41.326;19.826;2022-08-21T12:34:33;30.00;96.90
11965;DHT22;6042;41.326;19.826;2022-08-21T12:37:09;30.00;96.50
11965;DHT22;6042;41.326;19.826;2022-08-21T12:39:44;29.80;96.50
11965;DHT22;6042;41.326;19.826;2022-08-21T12:42:17;29.60;96.50
11965;DHT22;6042;41.326;19.826;2022-08-21T12:44:49;29.50;96.70
11965;DHT22;6042;41.326;19.826;2022-08-21T12:47:27;29.50;97.50
11965;DHT22;6042;41.326;19.826;2022-08-21T12:50:03;29.70;98.40
11965;DHT22;6042;41.326;19.826;2022-08-21T12:52:35;30.00;98.10
11965;DHT22;6042;41.326;19.826;2022-08-21T12:55:07;30.30;97.80
11965;DHT22;6042;41.326;19.826;2022-08-21T12:57:40;30.50;97.50
11965;DHT22;6042;41.326;19.826;2022-08-21T13:00:12;30.60;97.50
11965;DHT22;6042;41.326;19.826;2022-08-21T13:02:45;30.90;96.70
11965;DHT22;6042;41.326;19.826;2022-08-21T13:05:19;31.00;96.70
11965;DHT22;6042;41.326;19.826;2022-08-21T13:07:52;31.30;96.40
11965;DHT22;6042;41.326;19.826;2022-08-21T13:10:22;31.20;96.40
11965;DHT22;6042;41.326;19.826;2022-08-21T13:12:54;31.20;96.60
11965;DHT22;6042;41.326;19.826;2022-08-21T13:15:28;30.90;97.10
11965;DHT22;6042;41.326;19.826;2022-08-21T13:18:00;30.50;98.00
11965;DHT22;6042;41.326;19.826;2022-08-21T13:20:35;30.40;98.00
11965;DHT22;6042;41.326;19.826;2022-08-21T13:23:21;30.00;98.40
11965;DHT22;6042;41.326;19.826;2022-08-21T13:25:51;29.80;99.30
11965;DHT22;6042;41.326;19.826;2022-08-21T13:28:20;29.40;99.90
11965;DHT22;6042;41.326;19.826;2022-08-21T13:30:50;29.10;99.90
11965;DHT22;6042;41.326;19.826;2022-08-21T13:33:23;29.10;99.90
11965;DHT22;6042;41.326;19.826;2022-08-21T13:36:09;29.10;99.90
11965;DHT22;6042;41.326;19.826;2022-08-21T13:38:41;29.00;99.90
11965;DHT22;6042;41.326;19.826;2022-08-21T13:41:18;28.80;99.90
11965;DHT22;6042;41.326;19.826;2022-08-21T13:43:56;28.50;99.90
11965;DHT22;6042;41.326;19.826;2022-08-21T13:46:30;28.70;99.90
11965;DHT22;6042;41.326;19.826;2022-08-21T13:49:00;29.20;99.90
11965;DHT22;6042;41.326;19.826;2022-08-21T13:51:31;29.10;99.90
11965;DHT22;6042;41.326;19.826;2022-08-21T13:54:01;28.90;99.90
11965;DHT22;6042;41.326;19.826;2022-08-21T13:56:32;28.60;99.90
11965;DHT22;6042;41.326;19.826;2022-08-21T13:59:02;28.50;99.90
11965;DHT22;6042;41.326;19.826;2022-08-21T14:01:33;28.40;99.90
11965;DHT22;6042;41.326;19.826;2022-08-21T14:04:06;28.30;99.90
11965;DHT22;6042;41.326;19.826;2022-08-21T14:06:38;28.30;99.90
11965;DHT22;6042;41.326;19.826;2022-08-21T14:09:12;28.20;99.90
11965;DHT22;6042;41.326;19.826;2022-08-21T14:11:42;28.10;99.90
11965;DHT22;6042;41.326;19.826;2022-08-21T14:14:19;28.70;99.90
11965;DHT22;6042;41.326;19.826;2022-08-21T14:16:54;29.90;99.90
11965;DHT22;6042;41.326;19.826;2022-08-21T14:19:25;30.60;99.90
11965;DHT22;6042;41.326;19.826;2022-08-21T14:21:56;31.00;99.90
11965;DHT22;6042;41.326;19.826;2022-08-21T14:24:27;31.30;99.90
11965;DHT22;6042;41.326;19.826;2022-08-21T14:27:02;31.40;99.70
11965;DHT22;6042;41.326;19.826;2022-08-21T14:29:34;31.20;99.30
11965;DHT22;6042;41.326;19.826;2022-08-21T14:32:11;30.70;99.90
11965;DHT22;6042;41.326;19.826;2022-08-21T14:34:48;30.50;99.90
11965;DHT22;6042;41.326;19.826;2022-08-21T14:37:17;30.30;99.90
11965;DHT22;6042;41.326;19.826;2022-08-21T14:39:47;30.60;99.90
11965;DHT22;6042;41.326;19.826;2022-08-21T14:42:16;31.10;99.90
11965;DHT22;6042;41.326;19.826;2022-08-21T14:44:45;31.30;98.80
11965;DHT22;6042;41.326;19.826;2022-08-21T14:47:13;30.80;98.90
11965;DHT22;6042;41.326;19.826;2022-08-21T14:49:42;30.00;99.90
11965;DHT22;6042;41.326;19.826;2022-08-21T14:52:10;29.70;99.90
11965;DHT22;6042;41.326;19.826;2022-08-21T14:54:40;29.40;99.90
11965;DHT22;6042;41.326;19.826;2022-08-21T14:57:11;29.20;99.90
11965;DHT22;6042;41.326;19.826;2022-08-21T14:59:41;29.20;99.90
11965;DHT22;6042;41.326;19.826;2022-08-21T15:02:10;29.20;99.90
11965;DHT22;6042;41.326;19.826;2022-08-21T15:04:39;29.30;99.90
11965;DHT22;6042;41.326;19.826;2022-08-21T15:07:08;29.50;99.90
11965;DHT22;6042;41.326;19.826;2022-08-21T15:09:37;29.40;99.90
11965;DHT22;6042;41.326;19.826;2022-08-21T15:12:07;29.20;99.90
11965;DHT22;6042;41.326;19.826;2022-08-21T15:14:39;29.40;99.90
11965;DHT22;6042;41.326;19.826;2022-08-21T15:17:08;29.20;99.60
11965;DHT22;6042;41.326;19.826;2022-08-21T15:19:39;29.10;99.80
11965;DHT22;6042;41.326;19.826;2022-08-21T15:22:08;29.00;99.90
11965;DHT22;6042;41.326;19.826;2022-08-21T15:24:45;28.90;99.90
11965;DHT22;6042;41.326;19.826;2022-08-21T15:27:16;28.60;99.90
11965;DHT22;6042;41.326;19.826;2022-08-21T15:29:47;28.40;99.90
11965;DHT22;6042;41.326;19.826;2022-08-21T15:32:18;28.50;99.90
11965;DHT22;6042;41.326;19.826;2022-08-21T15:34:49;28.60;99.90
11965;DHT22;6042;41.326;19.826;2022-08-21T15:37:19;28.40;99.90
11965;DHT22;6042;41.326;19.826;2022-08-21T15:39:48;28.30;99.90
11965;DHT22;6042;41.326;19.826;2022-08-21T15:42:22;28.40;99.90
11965;DHT22;6042;41.326;19.826;2022-08-21T15:44:51;28.40;99.90
11965;DHT22;6042;41.326;19.826;2022-08-21T15:47:24;28.40;99.90
11965;DHT22;6042;41.326;19.826;2022-08-21T15:49:53;28.60;99.90
11965;DHT22;6042;41.326;19.826;2022-08-21T15:52:21;28.90;99.90
11965;DHT22;6042;41.326;19.826;2022-08-21T15:54:50;29.30;99.90
11965;DHT22;6042;41.326;19.826;2022-08-21T15:57:22;29.70;99.90
11965;DHT22;6042;41.326;19.826;2022-08-21T15:59:55;29.90;99.90
11965;DHT22;6042;41.326;19.826;2022-08-21T16:02:26;30.00;99.90
11965;DHT22;6042;41.326;19.826;2022-08-21T16:04:56;30.10;99.90
11965;DHT22;6042;41.326;19.826;2022-08-21T16:07:24;30.40;99.90
11965;DHT22;6042;41.326;19.826;2022-08-21T16:09:53;30.70;99.90
11965;DHT22;6042;41.326;19.826;2022-08-21T16:12:25;30.70;99.90